map of TOJ home
TOJ - Airport
Location
City:  Madrid, Madrid, Spain
Name:Torrejón AFB
ICAO:LETO
IATA:TOJ

Details
Type:Airport (Aerodrome, Airfield)
Use:Public/Civil, Military
Latitude:40°29'48"N (40.496747)
Longitude:3°26'45"W (-3.445871)
Datum:WGS 1984
Elevation:2026 ft (618 m)
Variation:0.52°W (WMM2015 magnetic declination)
0.12° annual change
Runways:1
Longest:12001 × 217 ft (3658 × 66 m), paved

Time
Time Zone:UTC+1 (DST+2)
Local Time:

Weather
METAR:LETO 180400Z 02004KT CAVOK M03/M04 Q1020 NOSIG
TAF:LETO 172300Z 1800/1824 02007KT CAVOK TX08/1815Z TNM04/1806Z
BECMG 1810/1811 22008KT

Related Locations
Nearby:
Farthest:NZPO: 12437 mi / 20015 km
Porangahau, HKB, NZ

Find:

   beyond  
but within

Other Information
Maps:
NOTAMs:
Links:
Sources:

  
  • flag of Spain
  • flag of Madrid
  

Airport Diagram

Airport diagram for TOJ

Larger airport diagram (OBSOLETE) from NGA

Sectional Chart

Flight Planning
at skyvector.com

Satellite Image

Google Maps Satellite view

 

Copyright © 2004-2019 Karl L. Swartz. All rights reserved.
The Great Circle Mapper name and logo are trademarks of the Great Circle Mapper.
All other trademarks mentioned herein belong to their respective owners.
Please see credits for attibutions and further copyright information.

  Follow gcmap on Facebook Follow gcmap on Twitter Follow gcmap on Google+ GCmap on LinkedIn

hCard Microformat

Geo Microformat